Aérodrome :
LOGIN :

S'inscrire | Disclaimer

   EN    FR    IT 

 










Légende :    VFR   VFR Marginal   IFR   IFR Intensif   IFR Très Intensif
Visi : 
Plafond : 
>= 8 km
>= 3000ft
5 à 8 km
1000 à 3000 ft
1500m à 5 km
500 à 1000 ft
800 à 1500m
200 à 500 ft
< 800m
< 200 ft
Symboles :   Orages  Brouillard  Fortes neiges  Fortes précipitations  Vent > 20 kt
SIGMETs :   Divers  Orages  Givrage  Turbulence  Onde Orograph.  Cendres Volcan.






- Altitude de l'aérodrome : 81 ft
- Code IATA : SCS


EGPM - Scatsta

DERNIER METAR :
  • 100350Z AUTO 16026KT 9999 FEW009/// SCT044/// 05/03 Q0999

METARs EXPIRÉS :
  • 100320Z AUTO 17026KT 9000 FEW010/// BKN023/// 05/02 Q1000
  • 100250Z AUTO 17025KT 9999 SCT009/// BKN020/// 04/02 Q1001
  • 100220Z AUTO 17024KT 9999 -RA BKN005/// BKN013/// 04/02 Q1003
  • 100150Z AUTO 16022KT 9999 -RA BKN003/// OVC014/// 03/02 Q1003
  • 100120Z AUTO 17022KT 8000 -RA SCT001/// BKN009/// BKN017/// 02/01 Q1004

TAF TAF EGPM
Valide du 10 à 03h jusqu'au 10 à 12h UTC


100157Z 1003/1012 17022G32KT 9999 SCT016
TEMPO 1003/1012 6000 RA BKN012
PROB40
TEMPO 1003/1006 4000 RADZ BKN004
BECMG 1005/1007 18032G45KT
PROB30
TEMPO 1006/1012 4000 RADZ BKN009
TEMPO 1007/1011 18040G55KT



MET'MAP, la Météo Aéronautique d'un coup d'oeil ! - Copyright ORBIFLY Décembre 2007 - Disclaimer

ORBIFLY MET'MAP TEAM :

Programmation & Développement : Alexandra Zaïnal
Sur une idée originale de : Baudouin d'Aumeries
Assistance à la programmation : Marc-Olivier Méhu
Soutien technique & logistique : Manuel Goepfert

Contact : metmap@orbifly.com




SOURCES & CREDITS :

   NOAA